sensor_id;sensor_type;location;lat;lon;timestamp;temperature;humidity
1614;DHT22;800;48.824;9.346;2023-05-29T00:02:14;21.60;44.00
1614;DHT22;800;48.824;9.346;2023-05-29T00:04:39;21.60;44.30
1614;DHT22;800;48.824;9.346;2023-05-29T00:07:05;21.60;44.40
1614;DHT22;800;48.824;9.346;2023-05-29T00:09:31;21.50;44.50
1614;DHT22;800;48.824;9.346;2023-05-29T00:11:56;21.50;44.50
1614;DHT22;800;48.824;9.346;2023-05-29T00:14:22;21.50;44.50
1614;DHT22;800;48.824;9.346;2023-05-29T00:16:50;21.50;44.60
1614;DHT22;800;48.824;9.346;2023-05-29T00:19:16;21.40;44.70
1614;DHT22;800;48.824;9.346;2023-05-29T00:21:42;21.40;44.80
1614;DHT22;800;48.824;9.346;2023-05-29T00:24:08;21.30;44.70
1614;DHT22;800;48.824;9.346;2023-05-29T00:26:34;21.30;44.90
1614;DHT22;800;48.824;9.346;2023-05-29T00:28:59;21.20;44.80
1614;DHT22;800;48.824;9.346;2023-05-29T00:31:25;21.20;44.80
1614;DHT22;800;48.824;9.346;2023-05-29T00:33:53;21.20;44.80
1614;DHT22;800;48.824;9.346;2023-05-29T00:36:19;21.20;44.80
1614;DHT22;800;48.824;9.346;2023-05-29T00:38:45;21.10;44.90
1614;DHT22;800;48.824;9.346;2023-05-29T00:41:16;21.10;45.00
1614;DHT22;800;48.824;9.346;2023-05-29T00:43:42;21.00;44.90
1614;DHT22;800;48.824;9.346;2023-05-29T00:46:09;21.00;45.10
1614;DHT22;800;48.824;9.346;2023-05-29T00:48:36;21.00;44.90
1614;DHT22;800;48.824;9.346;2023-05-29T00:51:02;21.00;44.90
1614;DHT22;800;48.824;9.346;2023-05-29T00:53:28;20.90;44.90
1614;DHT22;800;48.824;9.346;2023-05-29T00:55:54;20.90;44.80
1614;DHT22;800;48.824;9.346;2023-05-29T00:58:20;20.90;45.00
1614;DHT22;800;48.824;9.346;2023-05-29T01:00:46;20.90;45.00
1614;DHT22;800;48.824;9.346;2023-05-29T01:03:13;20.90;44.90
1614;DHT22;800;48.824;9.346;2023-05-29T01:05:40;20.90;44.90
1614;DHT22;800;48.824;9.346;2023-05-29T01:08:06;20.90;44.70
1614;DHT22;800;48.824;9.346;2023-05-29T01:10:32;20.90;44.90
1614;DHT22;800;48.824;9.346;2023-05-29T01:13:18;20.90;44.90
1614;DHT22;800;48.824;9.346;2023-05-29T01:18:44;20.80;44.30
1614;DHT22;800;48.824;9.346;2023-05-29T01:27:03;20.80;44.70
1614;DHT22;800;48.824;9.346;2023-05-29T01:29:33;20.80;44.60
1614;DHT22;800;48.824;9.346;2023-05-29T01:32:00;20.80;44.60
1614;DHT22;800;48.824;9.346;2023-05-29T01:34:27;20.80;44.70
1614;DHT22;800;48.824;9.346;2023-05-29T01:36:53;20.70;44.70
1614;DHT22;800;48.824;9.346;2023-05-29T01:39:19;20.70;44.80
1614;DHT22;800;48.824;9.346;2023-05-29T01:41:46;20.70;44.60
1614;DHT22;800;48.824;9.346;2023-05-29T01:44:13;20.70;44.70
1614;DHT22;800;48.824;9.346;2023-05-29T01:46:41;20.70;45.00
1614;DHT22;800;48.824;9.346;2023-05-29T01:49:08;20.60;45.60
1614;DHT22;800;48.824;9.346;2023-05-29T01:51:34;20.60;45.90
1614;DHT22;800;48.824;9.346;2023-05-29T01:54:01;20.60;45.70
1614;DHT22;800;48.824;9.346;2023-05-29T01:56:28;20.50;45.50
1614;DHT22;800;48.824;9.346;2023-05-29T01:58:55;20.40;45.40
1614;DHT22;800;48.824;9.346;2023-05-29T02:01:24;20.40;45.60
1614;DHT22;800;48.824;9.346;2023-05-29T02:03:50;20.40;45.60
1614;DHT22;800;48.824;9.346;2023-05-29T02:06:19;20.40;45.80
1614;DHT22;800;48.824;9.346;2023-05-29T02:08:44;20.20;46.00
1614;DHT22;800;48.824;9.346;2023-05-29T02:11:10;20.20;46.20
1614;DHT22;800;48.824;9.346;2023-05-29T02:13:36;20.20;46.40
1614;DHT22;800;48.824;9.346;2023-05-29T02:16:01;20.10;46.30
1614;DHT22;800;48.824;9.346;2023-05-29T02:18:27;20.10;46.30
1614;DHT22;800;48.824;9.346;2023-05-29T02:20:52;20.10;46.40
1614;DHT22;800;48.824;9.346;2023-05-29T02:23:18;20.00;46.50
1614;DHT22;800;48.824;9.346;2023-05-29T02:25:45;20.00;47.10
1614;DHT22;800;48.824;9.346;2023-05-29T02:28:10;19.90;47.40
1614;DHT22;800;48.824;9.346;2023-05-29T02:30:36;19.90;47.60
1614;DHT22;800;48.824;9.346;2023-05-29T02:33:02;19.80;47.20
1614;DHT22;800;48.824;9.346;2023-05-29T02:35:27;19.80;47.20
1614;DHT22;800;48.824;9.346;2023-05-29T02:37:53;19.70;47.20
1614;DHT22;800;48.824;9.346;2023-05-29T02:40:19;19.70;47.30
1614;DHT22;800;48.824;9.346;2023-05-29T02:42:46;19.70;47.30
1614;DHT22;800;48.824;9.346;2023-05-29T02:45:12;19.60;47.30
1614;DHT22;800;48.824;9.346;2023-05-29T02:47:38;19.60;47.70
1614;DHT22;800;48.824;9.346;2023-05-29T02:50:04;19.60;48.20
1614;DHT22;800;48.824;9.346;2023-05-29T02:52:31;19.60;48.40
1614;DHT22;800;48.824;9.346;2023-05-29T02:54:57;19.60;48.40
1614;DHT22;800;48.824;9.346;2023-05-29T02:57:24;19.60;48.20
1614;DHT22;800;48.824;9.346;2023-05-29T02:59:50;19.50;47.90
1614;DHT22;800;48.824;9.346;2023-05-29T03:02:17;19.40;47.80
1614;DHT22;800;48.824;9.346;2023-05-29T03:04:43;19.30;47.80
1614;DHT22;800;48.824;9.346;2023-05-29T03:07:08;19.30;47.90
1614;DHT22;800;48.824;9.346;2023-05-29T03:09:35;19.20;48.00
1614;DHT22;800;48.824;9.346;2023-05-29T03:12:01;19.10;48.20
1614;DHT22;800;48.824;9.346;2023-05-29T03:14:27;19.00;48.20
1614;DHT22;800;48.824;9.346;2023-05-29T03:16:53;19.00;48.40
1614;DHT22;800;48.824;9.346;2023-05-29T03:19:19;19.00;48.70
1614;DHT22;800;48.824;9.346;2023-05-29T03:21:44;18.90;48.80
1614;DHT22;800;48.824;9.346;2023-05-29T03:24:10;18.90;49.00
1614;DHT22;800;48.824;9.346;2023-05-29T03:26:36;18.90;49.10
1614;DHT22;800;48.824;9.346;2023-05-29T03:29:02;18.90;49.00
1614;DHT22;800;48.824;9.346;2023-05-29T03:31:28;18.90;49.00
1614;DHT22;800;48.824;9.346;2023-05-29T03:33:53;18.90;48.90
1614;DHT22;800;48.824;9.346;2023-05-29T03:36:19;19.00;48.80
1614;DHT22;800;48.824;9.346;2023-05-29T03:38:44;18.90;48.90
1614;DHT22;800;48.824;9.346;2023-05-29T03:41:10;18.90;48.80
1614;DHT22;800;48.824;9.346;2023-05-29T03:43:36;18.90;48.90
1614;DHT22;800;48.824;9.346;2023-05-29T03:46:02;18.90;49.00
1614;DHT22;800;48.824;9.346;2023-05-29T03:48:28;18.90;49.00
1614;DHT22;800;48.824;9.346;2023-05-29T03:50:53;18.80;49.10
1614;DHT22;800;48.824;9.346;2023-05-29T03:53:19;18.80;49.30
1614;DHT22;800;48.824;9.346;2023-05-29T03:55:44;18.80;49.30
1614;DHT22;800;48.824;9.346;2023-05-29T03:58:10;18.70;49.30
1614;DHT22;800;48.824;9.346;2023-05-29T04:00:38;18.70;49.40
1614;DHT22;800;48.824;9.346;2023-05-29T04:03:04;18.70;49.40
1614;DHT22;800;48.824;9.346;2023-05-29T04:05:29;18.60;49.40
1614;DHT22;800;48.824;9.346;2023-05-29T04:07:56;18.60;49.50
1614;DHT22;800;48.824;9.346;2023-05-29T04:10:21;18.50;49.60
1614;DHT22;800;48.824;9.346;2023-05-29T04:12:50;18.50;49.60
1614;DHT22;800;48.824;9.346;2023-05-29T04:15:16;18.50;49.80
1614;DHT22;800;48.824;9.346;2023-05-29T04:17:41;18.50;49.80
1614;DHT22;800;48.824;9.346;2023-05-29T04:20:07;18.50;49.90
1614;DHT22;800;48.824;9.346;2023-05-29T04:22:37;18.50;50.10
1614;DHT22;800;48.824;9.346;2023-05-29T04:25:03;18.50;50.20
1614;DHT22;800;48.824;9.346;2023-05-29T04:27:30;18.60;50.30
1614;DHT22;800;48.824;9.346;2023-05-29T04:29:57;18.60;50.50
1614;DHT22;800;48.824;9.346;2023-05-29T04:32:23;18.60;50.40
1614;DHT22;800;48.824;9.346;2023-05-29T04:34:49;18.60;50.30
1614;DHT22;800;48.824;9.346;2023-05-29T04:37:14;18.60;50.20
1614;DHT22;800;48.824;9.346;2023-05-29T04:39:40;18.70;50.30
1614;DHT22;800;48.824;9.346;2023-05-29T04:42:06;18.70;50.10
1614;DHT22;800;48.824;9.346;2023-05-29T04:44:32;18.70;49.80
1614;DHT22;800;48.824;9.346;2023-05-29T04:46:58;18.70;49.80
1614;DHT22;800;48.824;9.346;2023-05-29T04:49:24;18.70;49.90
1614;DHT22;800;48.824;9.346;2023-05-29T04:51:49;18.80;50.00
1614;DHT22;800;48.824;9.346;2023-05-29T04:54:18;18.80;49.90
1614;DHT22;800;48.824;9.346;2023-05-29T04:56:45;18.90;50.00
1614;DHT22;800;48.824;9.346;2023-05-29T04:59:11;18.90;49.90
1614;DHT22;800;48.824;9.346;2023-05-29T05:01:37;18.90;49.80
1614;DHT22;800;48.824;9.346;2023-05-29T05:04:03;19.00;49.80
1614;DHT22;800;48.824;9.346;2023-05-29T05:06:29;19.00;49.90
1614;DHT22;800;48.824;9.346;2023-05-29T05:08:54;19.00;50.00
1614;DHT22;800;48.824;9.346;2023-05-29T05:11:22;19.00;49.90
1614;DHT22;800;48.824;9.346;2023-05-29T05:13:48;19.10;49.90
1614;DHT22;800;48.824;9.346;2023-05-29T05:16:13;19.10;49.90
1614;DHT22;800;48.824;9.346;2023-05-29T05:18:39;19.20;49.90
1614;DHT22;800;48.824;9.346;2023-05-29T05:21:05;19.20;49.80
1614;DHT22;800;48.824;9.346;2023-05-29T05:23:31;19.30;49.80
1614;DHT22;800;48.824;9.346;2023-05-29T05:25:57;19.40;49.70
1614;DHT22;800;48.824;9.346;2023-05-29T05:28:23;19.40;49.60
1614;DHT22;800;48.824;9.346;2023-05-29T05:30:48;19.50;49.60
1614;DHT22;800;48.824;9.346;2023-05-29T05:33:14;19.60;49.50
1614;DHT22;800;48.824;9.346;2023-05-29T05:35:40;19.60;49.60
1614;DHT22;800;48.824;9.346;2023-05-29T05:38:05;19.70;49.40
1614;DHT22;800;48.824;9.346;2023-05-29T05:40:31;19.70;49.30
1614;DHT22;800;48.824;9.346;2023-05-29T05:42:57;19.70;49.70
1614;DHT22;800;48.824;9.346;2023-05-29T05:45:23;19.80;49.40
1614;DHT22;800;48.824;9.346;2023-05-29T05:47:48;19.90;49.10
1614;DHT22;800;48.824;9.346;2023-05-29T05:50:14;19.90;48.60
1614;DHT22;800;48.824;9.346;2023-05-29T05:52:40;20.10;48.30
1614;DHT22;800;48.824;9.346;2023-05-29T05:55:06;20.20;48.20
1614;DHT22;800;48.824;9.346;2023-05-29T05:57:33;20.30;48.30
1614;DHT22;800;48.824;9.346;2023-05-29T05:59:59;20.40;48.30
1614;DHT22;800;48.824;9.346;2023-05-29T06:02:25;20.50;47.90
1614;DHT22;800;48.824;9.346;2023-05-29T06:04:51;20.60;47.90
1614;DHT22;800;48.824;9.346;2023-05-29T06:07:17;20.70;48.30
1614;DHT22;800;48.824;9.346;2023-05-29T06:09:43;20.80;48.40
1614;DHT22;800;48.824;9.346;2023-05-29T06:12:08;20.90;48.50
1614;DHT22;800;48.824;9.346;2023-05-29T06:14:35;21.00;48.60
1614;DHT22;800;48.824;9.346;2023-05-29T06:17:00;21.20;48.30
1614;DHT22;800;48.824;9.346;2023-05-29T06:19:26;21.30;48.20
1614;DHT22;800;48.824;9.346;2023-05-29T06:21:52;21.40;48.20
1614;DHT22;800;48.824;9.346;2023-05-29T06:24:17;21.40;48.60
1614;DHT22;800;48.824;9.346;2023-05-29T06:26:43;21.60;47.60
1614;DHT22;800;48.824;9.346;2023-05-29T06:29:09;21.70;47.70
1614;DHT22;800;48.824;9.346;2023-05-29T06:31:34;21.80;47.80
1614;DHT22;800;48.824;9.346;2023-05-29T06:34:00;21.90;47.10
1614;DHT22;800;48.824;9.346;2023-05-29T06:36:25;22.00;47.20
1614;DHT22;800;48.824;9.346;2023-05-29T06:38:51;22.00;46.90
1614;DHT22;800;48.824;9.346;2023-05-29T06:41:17;22.20;46.50
1614;DHT22;800;48.824;9.346;2023-05-29T06:43:43;22.20;45.90
1614;DHT22;800;48.824;9.346;2023-05-29T06:46:09;22.40;46.10
1614;DHT22;800;48.824;9.346;2023-05-29T06:48:35;22.40;45.70
1614;DHT22;800;48.824;9.346;2023-05-29T06:51:02;22.60;45.40
1614;DHT22;800;48.824;9.346;2023-05-29T06:53:40;22.70;44.70
1614;DHT22;800;48.824;9.346;2023-05-29T06:56:06;22.90;44.90
1614;DHT22;800;48.824;9.346;2023-05-29T06:58:32;23.10;44.80
1614;DHT22;800;48.824;9.346;2023-05-29T07:00:59;23.20;44.00
1614;DHT22;800;48.824;9.346;2023-05-29T07:03:25;23.30;43.70
1614;DHT22;800;48.824;9.346;2023-05-29T07:05:51;23.40;43.80
1614;DHT22;800;48.824;9.346;2023-05-29T07:08:17;23.50;43.20
1614;DHT22;800;48.824;9.346;2023-05-29T07:10:43;23.60;44.10
1614;DHT22;800;48.824;9.346;2023-05-29T07:13:08;23.70;44.10
1614;DHT22;800;48.824;9.346;2023-05-29T07:15:34;23.70;44.20
1614;DHT22;800;48.824;9.346;2023-05-29T07:18:00;23.70;43.80
1614;DHT22;800;48.824;9.346;2023-05-29T07:20:25;23.90;43.90
1614;DHT22;800;48.824;9.346;2023-05-29T07:22:51;23.80;43.90
1614;DHT22;800;48.824;9.346;2023-05-29T07:25:17;24.00;44.30
1614;DHT22;800;48.824;9.346;2023-05-29T07:27:42;24.00;43.10
1614;DHT22;800;48.824;9.346;2023-05-29T07:30:08;24.10;43.20
1614;DHT22;800;48.824;9.346;2023-05-29T07:32:34;24.30;43.20
1614;DHT22;800;48.824;9.346;2023-05-29T07:35:00;24.40;43.40
1614;DHT22;800;48.824;9.346;2023-05-29T07:37:25;24.40;42.80
1614;DHT22;800;48.824;9.346;2023-05-29T07:39:51;24.60;44.00
1614;DHT22;800;48.824;9.346;2023-05-29T07:42:16;24.80;42.60
1614;DHT22;800;48.824;9.346;2023-05-29T07:44:42;24.90;43.00
1614;DHT22;800;48.824;9.346;2023-05-29T07:47:09;25.10;42.30
1614;DHT22;800;48.824;9.346;2023-05-29T07:49:35;25.20;42.50
1614;DHT22;800;48.824;9.346;2023-05-29T07:52:02;25.40;43.20
1614;DHT22;800;48.824;9.346;2023-05-29T07:54:27;25.50;42.00
1614;DHT22;800;48.824;9.346;2023-05-29T07:56:53;25.70;42.30
1614;DHT22;800;48.824;9.346;2023-05-29T07:59:19;25.90;42.10
1614;DHT22;800;48.824;9.346;2023-05-29T08:01:45;26.10;40.80
1614;DHT22;800;48.824;9.346;2023-05-29T08:04:11;26.20;40.40
1614;DHT22;800;48.824;9.346;2023-05-29T08:06:36;26.30;40.40
1614;DHT22;800;48.824;9.346;2023-05-29T08:09:02;26.40;40.10
1614;DHT22;800;48.824;9.346;2023-05-29T08:11:29;26.40;40.30
1614;DHT22;800;48.824;9.346;2023-05-29T08:13:54;26.50;40.20
1614;DHT22;800;48.824;9.346;2023-05-29T08:16:20;26.50;39.70
1614;DHT22;800;48.824;9.346;2023-05-29T08:18:47;26.60;39.90
1614;DHT22;800;48.824;9.346;2023-05-29T08:21:13;26.50;40.00
1614;DHT22;800;48.824;9.346;2023-05-29T08:23:39;26.50;40.40
1614;DHT22;800;48.824;9.346;2023-05-29T08:26:05;26.60;40.10
1614;DHT22;800;48.824;9.346;2023-05-29T08:28:30;26.80;40.10
1614;DHT22;800;48.824;9.346;2023-05-29T08:30:56;26.80;40.10
1614;DHT22;800;48.824;9.346;2023-05-29T08:33:22;26.90;40.40
1614;DHT22;800;48.824;9.346;2023-05-29T08:35:47;27.10;39.80
1614;DHT22;800;48.824;9.346;2023-05-29T08:38:13;27.00;39.90
1614;DHT22;800;48.824;9.346;2023-05-29T08:40:39;27.20;40.00
1614;DHT22;800;48.824;9.346;2023-05-29T08:43:13;27.40;39.40
1614;DHT22;800;48.824;9.346;2023-05-29T08:45:43;27.70;39.40
1614;DHT22;800;48.824;9.346;2023-05-29T08:48:10;28.00;39.30
1614;DHT22;800;48.824;9.346;2023-05-29T08:50:42;28.30;38.40
1614;DHT22;800;48.824;9.346;2023-05-29T08:53:10;28.40;38.90
1614;DHT22;800;48.824;9.346;2023-05-29T08:55:36;28.70;38.70
1614;DHT22;800;48.824;9.346;2023-05-29T08:58:02;28.90;37.30
1614;DHT22;800;48.824;9.346;2023-05-29T09:00:28;29.10;36.70
1614;DHT22;800;48.824;9.346;2023-05-29T09:02:54;29.10;36.70
1614;DHT22;800;48.824;9.346;2023-05-29T09:05:21;29.20;36.50
1614;DHT22;800;48.824;9.346;2023-05-29T09:07:47;29.40;36.30
1614;DHT22;800;48.824;9.346;2023-05-29T09:10:14;29.50;36.80
1614;DHT22;800;48.824;9.346;2023-05-29T09:12:41;29.70;35.90
1614;DHT22;800;48.824;9.346;2023-05-29T09:15:20;29.90;35.70
1614;DHT22;800;48.824;9.346;2023-05-29T09:17:53;30.10;34.90
1614;DHT22;800;48.824;9.346;2023-05-29T09:20:20;30.30;33.90
1614;DHT22;800;48.824;9.346;2023-05-29T09:22:59;30.40;33.60
1614;DHT22;800;48.824;9.346;2023-05-29T09:25:29;30.70;33.50
1614;DHT22;800;48.824;9.346;2023-05-29T09:30:32;31.00;32.10
1614;DHT22;800;48.824;9.346;2023-05-29T09:33:01;31.00;31.40
1614;DHT22;800;48.824;9.346;2023-05-29T09:35:44;30.90;30.00
1614;DHT22;800;48.824;9.346;2023-05-29T09:38:12;30.60;29.60
1614;DHT22;800;48.824;9.346;2023-05-29T09:40:39;30.70;30.20
1614;DHT22;800;48.824;9.346;2023-05-29T09:43:18;30.80;29.30
1614;DHT22;800;48.824;9.346;2023-05-29T09:45:48;30.80;28.90
1614;DHT22;800;48.824;9.346;2023-05-29T09:48:27;30.80;29.90
1614;DHT22;800;48.824;9.346;2023-05-29T09:50:54;30.80;28.40
1614;DHT22;800;48.824;9.346;2023-05-29T09:53:24;30.80;28.90
1614;DHT22;800;48.824;9.346;2023-05-29T09:55:51;31.10;28.90
1614;DHT22;800;48.824;9.346;2023-05-29T09:58:18;31.50;28.60
1614;DHT22;800;48.824;9.346;2023-05-29T10:00:45;31.60;27.60
1614;DHT22;800;48.824;9.346;2023-05-29T10:03:11;31.60;28.30
1614;DHT22;800;48.824;9.346;2023-05-29T10:05:41;31.20;28.20
1614;DHT22;800;48.824;9.346;2023-05-29T10:08:14;31.00;29.60
1614;DHT22;800;48.824;9.346;2023-05-29T10:10:44;31.30;29.60
1614;DHT22;800;48.824;9.346;2023-05-29T10:13:12;31.50;29.00
1614;DHT22;800;48.824;9.346;2023-05-29T10:15:41;31.80;29.10
1614;DHT22;800;48.824;9.346;2023-05-29T10:18:12;32.20;29.00
1614;DHT22;800;48.824;9.346;2023-05-29T10:20:39;32.30;28.00
1614;DHT22;800;48.824;9.346;2023-05-29T10:23:07;32.60;28.70
1614;DHT22;800;48.824;9.346;2023-05-29T10:25:35;32.60;28.30
1614;DHT22;800;48.824;9.346;2023-05-29T10:28:01;32.90;28.20
1614;DHT22;800;48.824;9.346;2023-05-29T10:30:41;33.00;27.60
1614;DHT22;800;48.824;9.346;2023-05-29T10:36:15;32.70;26.80
1614;DHT22;800;48.824;9.346;2023-05-29T10:38:44;32.60;27.50
1614;DHT22;800;48.824;9.346;2023-05-29T10:41:28;32.70;27.90
1614;DHT22;800;48.824;9.346;2023-05-29T10:44:02;32.70;25.30
1614;DHT22;800;48.824;9.346;2023-05-29T10:51:42;32.80;26.40
1614;DHT22;800;48.824;9.346;2023-05-29T10:54:07;33.10;26.00
1614;DHT22;800;48.824;9.346;2023-05-29T10:56:33;33.40;26.70
1614;DHT22;800;48.824;9.346;2023-05-29T10:58:59;33.60;25.70
1614;DHT22;800;48.824;9.346;2023-05-29T11:01:29;33.60;26.20
1614;DHT22;800;48.824;9.346;2023-05-29T11:06:43;33.90;25.70
1614;DHT22;800;48.824;9.346;2023-05-29T11:12:23;33.60;26.10
1614;DHT22;800;48.824;9.346;2023-05-29T11:15:09;33.80;25.60
1614;DHT22;800;48.824;9.346;2023-05-29T11:20:06;33.90;24.90
1614;DHT22;800;48.824;9.346;2023-05-29T11:22:45;33.90;24.20
1614;DHT22;800;48.824;9.346;2023-05-29T11:25:15;34.10;24.40
1614;DHT22;800;48.824;9.346;2023-05-29T11:27:43;34.00;24.80
1614;DHT22;800;48.824;9.346;2023-05-29T11:30:09;34.40;24.80
1614;DHT22;800;48.824;9.346;2023-05-29T11:32:37;34.50;24.30
1614;DHT22;800;48.824;9.346;2023-05-29T11:35:09;34.40;23.20
1614;DHT22;800;48.824;9.346;2023-05-29T11:37:37;34.30;23.50
1614;DHT22;800;48.824;9.346;2023-05-29T11:40:04;33.90;22.90
1614;DHT22;800;48.824;9.346;2023-05-29T11:42:44;34.10;24.60
1614;DHT22;800;48.824;9.346;2023-05-29T11:45:17;34.30;24.90
1614;DHT22;800;48.824;9.346;2023-05-29T11:47:51;34.10;24.90
1614;DHT22;800;48.824;9.346;2023-05-29T11:50:21;34.20;23.90
1614;DHT22;800;48.824;9.346;2023-05-29T11:52:47;34.10;23.40
1614;DHT22;800;48.824;9.346;2023-05-29T11:55:13;34.20;23.10
1614;DHT22;800;48.824;9.346;2023-05-29T11:57:39;34.20;23.90
1614;DHT22;800;48.824;9.346;2023-05-29T12:00:05;34.00;22.80
1614;DHT22;800;48.824;9.346;2023-05-29T12:02:36;33.80;23.50
1614;DHT22;800;48.824;9.346;2023-05-29T12:05:03;33.90;24.10
1614;DHT22;800;48.824;9.346;2023-05-29T12:07:30;33.70;22.50
1614;DHT22;800;48.824;9.346;2023-05-29T12:09:55;33.70;23.40
1614;DHT22;800;48.824;9.346;2023-05-29T12:12:23;33.70;23.10
1614;DHT22;800;48.824;9.346;2023-05-29T12:14:52;33.40;22.50
1614;DHT22;800;48.824;9.346;2023-05-29T12:17:19;33.70;23.40
1614;DHT22;800;48.824;9.346;2023-05-29T12:19:45;33.90;22.90
1614;DHT22;800;48.824;9.346;2023-05-29T12:22:11;34.00;22.60
1614;DHT22;800;48.824;9.346;2023-05-29T12:24:37;34.00;22.80
1614;DHT22;800;48.824;9.346;2023-05-29T12:27:06;34.10;22.20
1614;DHT22;800;48.824;9.346;2023-05-29T12:29:33;34.00;21.90
1614;DHT22;800;48.824;9.346;2023-05-29T12:31:59;34.30;22.40
1614;DHT22;800;48.824;9.346;2023-05-29T12:34:25;34.50;21.90
1614;DHT22;800;48.824;9.346;2023-05-29T12:36:50;34.40;22.30
1614;DHT22;800;48.824;9.346;2023-05-29T12:39:16;34.50;22.70
1614;DHT22;800;48.824;9.346;2023-05-29T12:41:42;34.60;22.50
1614;DHT22;800;48.824;9.346;2023-05-29T12:44:07;34.80;22.30
1614;DHT22;800;48.824;9.346;2023-05-29T12:46:39;34.90;22.70
1614;DHT22;800;48.824;9.346;2023-05-29T12:49:15;34.80;21.70
1614;DHT22;800;48.824;9.346;2023-05-29T12:51:43;34.60;21.30
1614;DHT22;800;48.824;9.346;2023-05-29T12:54:16;34.30;21.50
1614;DHT22;800;48.824;9.346;2023-05-29T12:56:42;34.30;22.20
1614;DHT22;800;48.824;9.346;2023-05-29T12:59:08;34.50;22.40
1614;DHT22;800;48.824;9.346;2023-05-29T13:01:37;34.60;21.90
1614;DHT22;800;48.824;9.346;2023-05-29T13:04:04;34.60;21.80
1614;DHT22;800;48.824;9.346;2023-05-29T13:06:37;34.50;21.30
1614;DHT22;800;48.824;9.346;2023-05-29T13:09:03;34.60;21.30
1614;DHT22;800;48.824;9.346;2023-05-29T13:11:30;34.60;20.30
1614;DHT22;800;48.824;9.346;2023-05-29T13:13:56;34.50;20.40
1614;DHT22;800;48.824;9.346;2023-05-29T13:16:21;34.30;19.90
1614;DHT22;800;48.824;9.346;2023-05-29T13:18:47;34.30;21.10
1614;DHT22;800;48.824;9.346;2023-05-29T13:21:13;34.30;22.20
1614;DHT22;800;48.824;9.346;2023-05-29T13:23:38;34.30;22.60
1614;DHT22;800;48.824;9.346;2023-05-29T13:26:04;34.50;21.80
1614;DHT22;800;48.824;9.346;2023-05-29T13:28:31;34.60;22.00
1614;DHT22;800;48.824;9.346;2023-05-29T13:30:56;34.90;22.30
1614;DHT22;800;48.824;9.346;2023-05-29T13:33:22;35.00;22.20
1614;DHT22;800;48.824;9.346;2023-05-29T13:35:47;35.20;21.50
1614;DHT22;800;48.824;9.346;2023-05-29T13:38:13;35.10;21.50
1614;DHT22;800;48.824;9.346;2023-05-29T13:40:39;34.90;21.00
1614;DHT22;800;48.824;9.346;2023-05-29T13:43:04;34.80;21.60
1614;DHT22;800;48.824;9.346;2023-05-29T13:45:30;34.80;21.90
1614;DHT22;800;48.824;9.346;2023-05-29T13:47:56;34.40;21.20
1614;DHT22;800;48.824;9.346;2023-05-29T13:50:22;34.30;21.60
1614;DHT22;800;48.824;9.346;2023-05-29T13:52:49;34.20;21.80
1614;DHT22;800;48.824;9.346;2023-05-29T13:55:15;34.20;21.20
1614;DHT22;800;48.824;9.346;2023-05-29T13:57:41;34.30;21.10
1614;DHT22;800;48.824;9.346;2023-05-29T14:00:10;34.40;21.50
1614;DHT22;800;48.824;9.346;2023-05-29T14:02:36;34.20;21.00
1614;DHT22;800;48.824;9.346;2023-05-29T14:05:05;34.10;20.70
1614;DHT22;800;48.824;9.346;2023-05-29T14:07:31;34.20;21.10
1614;DHT22;800;48.824;9.346;2023-05-29T14:09:57;34.30;22.10
1614;DHT22;800;48.824;9.346;2023-05-29T14:12:22;34.20;22.40
1614;DHT22;800;48.824;9.346;2023-05-29T14:14:48;34.10;21.10
1614;DHT22;800;48.824;9.346;2023-05-29T14:17:14;34.20;22.00
1614;DHT22;800;48.824;9.346;2023-05-29T14:19:40;34.30;22.40
1614;DHT22;800;48.824;9.346;2023-05-29T14:22:06;34.30;21.70
1614;DHT22;800;48.824;9.346;2023-05-29T14:24:32;34.20;22.40
1614;DHT22;800;48.824;9.346;2023-05-29T14:26:57;34.40;21.70
1614;DHT22;800;48.824;9.346;2023-05-29T14:29:23;34.70;22.20
1614;DHT22;800;48.824;9.346;2023-05-29T14:31:48;34.90;21.20
1614;DHT22;800;48.824;9.346;2023-05-29T14:34:14;34.60;21.60
1614;DHT22;800;48.824;9.346;2023-05-29T14:36:40;34.30;21.60
1614;DHT22;800;48.824;9.346;2023-05-29T14:39:06;33.80;21.50
1614;DHT22;800;48.824;9.346;2023-05-29T14:41:32;33.80;21.90
1614;DHT22;800;48.824;9.346;2023-05-29T14:44:03;33.90;21.60
1614;DHT22;800;48.824;9.346;2023-05-29T14:46:29;34.10;22.60
1614;DHT22;800;48.824;9.346;2023-05-29T14:48:58;34.10;22.80
1614;DHT22;800;48.824;9.346;2023-05-29T14:51:23;34.00;22.80
1614;DHT22;800;48.824;9.346;2023-05-29T14:53:50;34.10;23.00
1614;DHT22;800;48.824;9.346;2023-05-29T14:56:15;33.90;22.30
1614;DHT22;800;48.824;9.346;2023-05-29T14:58:43;33.40;22.60
1614;DHT22;800;48.824;9.346;2023-05-29T15:01:09;33.20;22.80
1614;DHT22;800;48.824;9.346;2023-05-29T15:03:34;33.00;22.80
1614;DHT22;800;48.824;9.346;2023-05-29T15:06:01;32.90;23.00
1614;DHT22;800;48.824;9.346;2023-05-29T15:08:27;33.00;22.30
1614;DHT22;800;48.824;9.346;2023-05-29T15:10:53;33.40;22.20
1614;DHT22;800;48.824;9.346;2023-05-29T15:13:19;33.80;22.40
1614;DHT22;800;48.824;9.346;2023-05-29T15:15:45;33.70;23.10
1614;DHT22;800;48.824;9.346;2023-05-29T15:18:10;33.50;23.30
1614;DHT22;800;48.824;9.346;2023-05-29T15:20:36;33.30;23.60
1614;DHT22;800;48.824;9.346;2023-05-29T15:23:01;33.20;24.20
1614;DHT22;800;48.824;9.346;2023-05-29T15:25:27;33.50;24.20
1614;DHT22;800;48.824;9.346;2023-05-29T15:27:52;33.50;23.80
1614;DHT22;800;48.824;9.346;2023-05-29T15:30:19;33.60;23.90
1614;DHT22;800;48.824;9.346;2023-05-29T15:32:45;33.80;23.90
1614;DHT22;800;48.824;9.346;2023-05-29T15:35:14;34.00;23.20
1614;DHT22;800;48.824;9.346;2023-05-29T15:37:41;34.10;23.90
1614;DHT22;800;48.824;9.346;2023-05-29T15:40:08;34.10;24.20
1614;DHT22;800;48.824;9.346;2023-05-29T15:42:36;34.40;23.50
1614;DHT22;800;48.824;9.346;2023-05-29T15:45:03;34.40;22.20
1614;DHT22;800;48.824;9.346;2023-05-29T15:47:30;33.80;23.00
1614;DHT22;800;48.824;9.346;2023-05-29T15:49:56;33.70;23.80
1614;DHT22;800;48.824;9.346;2023-05-29T15:52:22;33.90;23.20
1614;DHT22;800;48.824;9.346;2023-05-29T15:54:48;34.00;23.20
1614;DHT22;800;48.824;9.346;2023-05-29T15:57:13;34.10;23.20
1614;DHT22;800;48.824;9.346;2023-05-29T15:59:39;33.70;22.80
1614;DHT22;800;48.824;9.346;2023-05-29T16:02:05;33.50;23.60
1614;DHT22;800;48.824;9.346;2023-05-29T16:04:30;33.30;23.10
1614;DHT22;800;48.824;9.346;2023-05-29T16:06:57;33.10;24.00
1614;DHT22;800;48.824;9.346;2023-05-29T16:09:23;33.00;24.00
1614;DHT22;800;48.824;9.346;2023-05-29T16:11:49;33.10;24.50
1614;DHT22;800;48.824;9.346;2023-05-29T16:14:14;32.90;24.20
1614;DHT22;800;48.824;9.346;2023-05-29T16:16:40;33.20;24.40
1614;DHT22;800;48.824;9.346;2023-05-29T16:19:06;33.40;24.40
1614;DHT22;800;48.824;9.346;2023-05-29T16:21:32;33.60;23.90
1614;DHT22;800;48.824;9.346;2023-05-29T16:23:59;33.40;23.60
1614;DHT22;800;48.824;9.346;2023-05-29T16:26:26;33.40;23.50
1614;DHT22;800;48.824;9.346;2023-05-29T16:29:00;33.60;23.50
1614;DHT22;800;48.824;9.346;2023-05-29T16:31:27;33.40;23.80
1614;DHT22;800;48.824;9.346;2023-05-29T16:33:54;33.20;23.30
1614;DHT22;800;48.824;9.346;2023-05-29T16:36:20;32.70;23.90
1614;DHT22;800;48.824;9.346;2023-05-29T16:38:46;32.40;24.30
1614;DHT22;800;48.824;9.346;2023-05-29T16:41:12;32.50;24.80
1614;DHT22;800;48.824;9.346;2023-05-29T16:43:37;32.60;24.60